sensor_id;sensor_type;location;lat;lon;timestamp;P1;durP1;ratioP1;P2;durP2;ratioP2
72926;SDS011;61071;51.618;19.388;2023-04-06T00:01:45;45.97;;;21.65;;
72926;SDS011;61071;51.618;19.388;2023-04-06T00:04:12;41.30;;;21.88;;
72926;SDS011;61071;51.618;19.388;2023-04-06T00:06:37;47.10;;;22.77;;
72926;SDS011;61071;51.618;19.388;2023-04-06T00:09:03;53.35;;;19.73;;
72926;SDS011;61071;51.618;19.388;2023-04-06T00:11:28;44.75;;;19.73;;
72926;SDS011;61071;51.618;19.388;2023-04-06T00:13:54;42.78;;;20.45;;
72926;SDS011;61071;51.618;19.388;2023-04-06T00:16:20;36.40;;;20.63;;
72926;SDS011;61071;51.618;19.388;2023-04-06T00:18:45;36.50;;;19.58;;
72926;SDS011;61071;51.618;19.388;2023-04-06T00:21:11;41.97;;;19.27;;
72926;SDS011;61071;51.618;19.388;2023-04-06T00:23:39;45.75;;;23.65;;
72926;SDS011;61071;51.618;19.388;2023-04-06T00:26:06;35.97;;;19.83;;
72926;SDS011;61071;51.618;19.388;2023-04-06T00:28:32;38.15;;;20.10;;
72926;SDS011;61071;51.618;19.388;2023-04-06T00:30:58;36.50;;;19.00;;
72926;SDS011;61071;51.618;19.388;2023-04-06T00:33:23;37.30;;;20.10;;
72926;SDS011;61071;51.618;19.388;2023-04-06T00:35:49;36.72;;;19.00;;
72926;SDS011;61071;51.618;19.388;2023-04-06T00:38:15;39.58;;;18.35;;
72926;SDS011;61071;51.618;19.388;2023-04-06T00:40:42;37.78;;;18.50;;
72926;SDS011;61071;51.618;19.388;2023-04-06T00:43:11;36.60;;;16.63;;
72926;SDS011;61071;51.618;19.388;2023-04-06T00:45:38;29.80;;;16.08;;
72926;SDS011;61071;51.618;19.388;2023-04-06T00:48:06;36.97;;;16.60;;
72926;SDS011;61071;51.618;19.388;2023-04-06T00:50:33;30.38;;;15.82;;
72926;SDS011;61071;51.618;19.388;2023-04-06T00:52:59;36.28;;;18.58;;
72926;SDS011;61071;51.618;19.388;2023-04-06T00:55:28;33.38;;;17.20;;
72926;SDS011;61071;51.618;19.388;2023-04-06T00:57:55;30.48;;;15.70;;
72926;SDS011;61071;51.618;19.388;2023-04-06T01:00:24;26.40;;;14.80;;
72926;SDS011;61071;51.618;19.388;2023-04-06T01:02:50;23.35;;;13.18;;
72926;SDS011;61071;51.618;19.388;2023-04-06T01:05:16;21.58;;;12.32;;
72926;SDS011;61071;51.618;19.388;2023-04-06T01:07:42;31.17;;;14.30;;
72926;SDS011;61071;51.618;19.388;2023-04-06T01:10:07;24.02;;;13.73;;
72926;SDS011;61071;51.618;19.388;2023-04-06T01:12:33;25.63;;;15.15;;
72926;SDS011;61071;51.618;19.388;2023-04-06T01:14:59;26.70;;;14.02;;
72926;SDS011;61071;51.618;19.388;2023-04-06T01:17:25;27.42;;;13.60;;
72926;SDS011;61071;51.618;19.388;2023-04-06T01:19:51;24.60;;;13.13;;
72926;SDS011;61071;51.618;19.388;2023-04-06T01:22:18;25.23;;;13.75;;
72926;SDS011;61071;51.618;19.388;2023-04-06T01:24:45;30.98;;;14.63;;
72926;SDS011;61071;51.618;19.388;2023-04-06T01:27:11;30.88;;;14.65;;
72926;SDS011;61071;51.618;19.388;2023-04-06T01:29:37;32.55;;;15.40;;
72926;SDS011;61071;51.618;19.388;2023-04-06T01:32:06;29.98;;;15.07;;
72926;SDS011;61071;51.618;19.388;2023-04-06T01:34:32;26.73;;;14.93;;
72926;SDS011;61071;51.618;19.388;2023-04-06T01:36:58;29.35;;;14.95;;
72926;SDS011;61071;51.618;19.388;2023-04-06T01:39:24;26.60;;;13.65;;
72926;SDS011;61071;51.618;19.388;2023-04-06T01:41:50;24.27;;;13.13;;
72926;SDS011;61071;51.618;19.388;2023-04-06T01:44:16;28.52;;;14.93;;
72926;SDS011;61071;51.618;19.388;2023-04-06T01:46:43;34.40;;;16.23;;
72926;SDS011;61071;51.618;19.388;2023-04-06T01:49:10;26.58;;;15.93;;
72926;SDS011;61071;51.618;19.388;2023-04-06T01:51:36;33.20;;;16.08;;
72926;SDS011;61071;51.618;19.388;2023-04-06T01:54:02;33.22;;;16.65;;
72926;SDS011;61071;51.618;19.388;2023-04-06T01:56:28;29.95;;;15.73;;
72926;SDS011;61071;51.618;19.388;2023-04-06T01:58:53;37.20;;;16.75;;
72926;SDS011;61071;51.618;19.388;2023-04-06T02:01:20;30.55;;;16.65;;
72926;SDS011;61071;51.618;19.388;2023-04-06T02:03:46;30.58;;;16.63;;
72926;SDS011;61071;51.618;19.388;2023-04-06T02:06:11;32.83;;;15.90;;
72926;SDS011;61071;51.618;19.388;2023-04-06T02:08:37;31.50;;;16.42;;
72926;SDS011;61071;51.618;19.388;2023-04-06T02:11:03;32.83;;;16.52;;
72926;SDS011;61071;51.618;19.388;2023-04-06T02:13:28;29.15;;;16.30;;
72926;SDS011;61071;51.618;19.388;2023-04-06T02:15:54;38.50;;;17.60;;
72926;SDS011;61071;51.618;19.388;2023-04-06T02:18:20;42.92;;;21.15;;
72926;SDS011;61071;51.618;19.388;2023-04-06T02:20:46;39.63;;;19.48;;
72926;SDS011;61071;51.618;19.388;2023-04-06T02:23:11;35.22;;;18.65;;
72926;SDS011;61071;51.618;19.388;2023-04-06T02:25:37;40.55;;;19.58;;
72926;SDS011;61071;51.618;19.388;2023-04-06T02:28:02;33.90;;;19.15;;
72926;SDS011;61071;51.618;19.388;2023-04-06T02:30:28;39.08;;;19.48;;
72926;SDS011;61071;51.618;19.388;2023-04-06T02:32:54;35.33;;;19.05;;
72926;SDS011;61071;51.618;19.388;2023-04-06T02:35:20;33.47;;;18.77;;
72926;SDS011;61071;51.618;19.388;2023-04-06T02:37:46;35.17;;;18.02;;
72926;SDS011;61071;51.618;19.388;2023-04-06T02:40:13;36.72;;;18.33;;
72926;SDS011;61071;51.618;19.388;2023-04-06T02:42:39;40.13;;;19.52;;
72926;SDS011;61071;51.618;19.388;2023-04-06T02:45:05;35.90;;;19.42;;
72926;SDS011;61071;51.618;19.388;2023-04-06T02:47:32;35.13;;;18.75;;
72926;SDS011;61071;51.618;19.388;2023-04-06T02:49:58;34.17;;;19.10;;
72926;SDS011;61071;51.618;19.388;2023-04-06T02:52:24;39.90;;;18.33;;
72926;SDS011;61071;51.618;19.388;2023-04-06T02:54:51;33.95;;;17.85;;
72926;SDS011;61071;51.618;19.388;2023-04-06T02:57:16;35.30;;;18.05;;
72926;SDS011;61071;51.618;19.388;2023-04-06T02:59:42;39.55;;;19.30;;
72926;SDS011;61071;51.618;19.388;2023-04-06T03:02:08;43.95;;;20.70;;
72926;SDS011;61071;51.618;19.388;2023-04-06T03:04:33;34.17;;;18.25;;
72926;SDS011;61071;51.618;19.388;2023-04-06T03:06:59;36.63;;;18.23;;
72926;SDS011;61071;51.618;19.388;2023-04-06T03:09:25;32.20;;;18.38;;
72926;SDS011;61071;51.618;19.388;2023-04-06T03:11:51;42.97;;;20.80;;
72926;SDS011;61071;51.618;19.388;2023-04-06T03:14:16;36.50;;;19.50;;
72926;SDS011;61071;51.618;19.388;2023-04-06T03:16:46;36.00;;;18.85;;
72926;SDS011;61071;51.618;19.388;2023-04-06T03:19:12;37.22;;;18.05;;
72926;SDS011;61071;51.618;19.388;2023-04-06T03:21:38;37.67;;;19.77;;
72926;SDS011;61071;51.618;19.388;2023-04-06T03:24:04;35.67;;;19.23;;
72926;SDS011;61071;51.618;19.388;2023-04-06T03:26:30;38.95;;;19.52;;
72926;SDS011;61071;51.618;19.388;2023-04-06T03:28:56;40.70;;;21.10;;
72926;SDS011;61071;51.618;19.388;2023-04-06T03:31:22;42.17;;;21.50;;
72926;SDS011;61071;51.618;19.388;2023-04-06T03:33:47;32.63;;;18.75;;
72926;SDS011;61071;51.618;19.388;2023-04-06T03:36:13;36.47;;;20.52;;
72926;SDS011;61071;51.618;19.388;2023-04-06T03:38:38;42.75;;;20.85;;
72926;SDS011;61071;51.618;19.388;2023-04-06T03:41:04;36.97;;;20.55;;
72926;SDS011;61071;51.618;19.388;2023-04-06T03:43:30;35.65;;;19.05;;
72926;SDS011;61071;51.618;19.388;2023-04-06T03:45:55;41.47;;;19.35;;
72926;SDS011;61071;51.618;19.388;2023-04-06T03:48:21;38.97;;;19.67;;
72926;SDS011;61071;51.618;19.388;2023-04-06T03:50:46;44.80;;;21.05;;
72926;SDS011;61071;51.618;19.388;2023-04-06T03:53:12;38.28;;;19.83;;
72926;SDS011;61071;51.618;19.388;2023-04-06T03:55:38;38.03;;;19.88;;
72926;SDS011;61071;51.618;19.388;2023-04-06T03:58:03;42.75;;;22.02;;
72926;SDS011;61071;51.618;19.388;2023-04-06T04:00:29;42.83;;;22.00;;
72926;SDS011;61071;51.618;19.388;2023-04-06T04:02:55;41.03;;;21.05;;
72926;SDS011;61071;51.618;19.388;2023-04-06T04:05:20;41.22;;;21.27;;
72926;SDS011;61071;51.618;19.388;2023-04-06T04:07:50;44.95;;;21.15;;
72926;SDS011;61071;51.618;19.388;2023-04-06T04:10:17;34.08;;;20.38;;
72926;SDS011;61071;51.618;19.388;2023-04-06T04:12:42;38.70;;;20.23;;
72926;SDS011;61071;51.618;19.388;2023-04-06T04:15:08;43.17;;;21.80;;
72926;SDS011;61071;51.618;19.388;2023-04-06T04:17:34;57.90;;;30.48;;
72926;SDS011;61071;51.618;19.388;2023-04-06T04:20:00;85.70;;;42.22;;
72926;SDS011;61071;51.618;19.388;2023-04-06T04:22:26;60.72;;;28.83;;
72926;SDS011;61071;51.618;19.388;2023-04-06T04:24:52;76.82;;;34.30;;
72926;SDS011;61071;51.618;19.388;2023-04-06T04:27:18;56.03;;;28.83;;
72926;SDS011;61071;51.618;19.388;2023-04-06T04:29:45;59.65;;;28.02;;
72926;SDS011;61071;51.618;19.388;2023-04-06T04:32:11;58.33;;;27.50;;
72926;SDS011;61071;51.618;19.388;2023-04-06T04:34:36;48.35;;;24.27;;
72926;SDS011;61071;51.618;19.388;2023-04-06T04:37:05;39.65;;;19.67;;
72926;SDS011;61071;51.618;19.388;2023-04-06T04:39:31;38.35;;;19.75;;
72926;SDS011;61071;51.618;19.388;2023-04-06T04:41:57;35.95;;;19.83;;
72926;SDS011;61071;51.618;19.388;2023-04-06T04:44:23;35.90;;;19.48;;
72926;SDS011;61071;51.618;19.388;2023-04-06T04:46:49;39.13;;;20.60;;
72926;SDS011;61071;51.618;19.388;2023-04-06T04:49:14;58.88;;;32.58;;
72926;SDS011;61071;51.618;19.388;2023-04-06T04:51:40;46.50;;;27.40;;
72926;SDS011;61071;51.618;19.388;2023-04-06T04:54:06;41.60;;;23.20;;
72926;SDS011;61071;51.618;19.388;2023-04-06T04:56:31;41.65;;;24.98;;
72926;SDS011;61071;51.618;19.388;2023-04-06T04:58:57;43.88;;;24.25;;
72926;SDS011;61071;51.618;19.388;2023-04-06T05:01:22;40.92;;;24.45;;
72926;SDS011;61071;51.618;19.388;2023-04-06T05:03:48;39.70;;;22.25;;
72926;SDS011;61071;51.618;19.388;2023-04-06T05:06:14;42.38;;;23.40;;
72926;SDS011;61071;51.618;19.388;2023-04-06T05:08:40;42.17;;;22.17;;
72926;SDS011;61071;51.618;19.388;2023-04-06T05:11:07;44.45;;;24.88;;
72926;SDS011;61071;51.618;19.388;2023-04-06T05:13:32;47.47;;;25.40;;
72926;SDS011;61071;51.618;19.388;2023-04-06T05:15:58;44.00;;;26.00;;
72926;SDS011;61071;51.618;19.388;2023-04-06T05:18:24;53.30;;;28.33;;
72926;SDS011;61071;51.618;19.388;2023-04-06T05:20:51;46.60;;;25.48;;
72926;SDS011;61071;51.618;19.388;2023-04-06T05:23:16;53.45;;;27.85;;
72926;SDS011;61071;51.618;19.388;2023-04-06T05:25:42;50.08;;;27.13;;
72926;SDS011;61071;51.618;19.388;2023-04-06T05:28:08;56.60;;;27.50;;
72926;SDS011;61071;51.618;19.388;2023-04-06T05:30:33;49.45;;;28.85;;
72926;SDS011;61071;51.618;19.388;2023-04-06T05:33:00;49.40;;;27.92;;
72926;SDS011;61071;51.618;19.388;2023-04-06T05:35:26;52.95;;;29.02;;
72926;SDS011;61071;51.618;19.388;2023-04-06T05:37:52;50.75;;;31.67;;
72926;SDS011;61071;51.618;19.388;2023-04-06T05:40:17;52.97;;;30.38;;
72926;SDS011;61071;51.618;19.388;2023-04-06T05:42:43;57.85;;;32.30;;
72926;SDS011;61071;51.618;19.388;2023-04-06T05:45:09;61.03;;;33.40;;
72926;SDS011;61071;51.618;19.388;2023-04-06T05:47:36;57.25;;;33.15;;
72926;SDS011;61071;51.618;19.388;2023-04-06T05:50:02;55.90;;;31.65;;
72926;SDS011;61071;51.618;19.388;2023-04-06T05:52:29;65.50;;;30.90;;
72926;SDS011;61071;51.618;19.388;2023-04-06T05:54:54;65.53;;;35.92;;
72926;SDS011;61071;51.618;19.388;2023-04-06T05:57:20;64.45;;;37.13;;
72926;SDS011;61071;51.618;19.388;2023-04-06T05:59:46;74.97;;;39.28;;
72926;SDS011;61071;51.618;19.388;2023-04-06T06:02:11;131.40;;;61.30;;
72926;SDS011;61071;51.618;19.388;2023-04-06T06:04:37;110.85;;;56.30;;
72926;SDS011;61071;51.618;19.388;2023-04-06T06:07:02;110.47;;;56.03;;
72926;SDS011;61071;51.618;19.388;2023-04-06T06:09:28;109.90;;;56.10;;
72926;SDS011;61071;51.618;19.388;2023-04-06T06:11:54;148.98;;;66.60;;
72926;SDS011;61071;51.618;19.388;2023-04-06T06:14:20;102.45;;;47.03;;
72926;SDS011;61071;51.618;19.388;2023-04-06T06:16:46;108.40;;;51.38;;
72926;SDS011;61071;51.618;19.388;2023-04-06T06:19:12;134.77;;;68.20;;
72926;SDS011;61071;51.618;19.388;2023-04-06T06:21:38;78.65;;;39.95;;
72926;SDS011;61071;51.618;19.388;2023-04-06T06:24:04;76.53;;;35.80;;
72926;SDS011;61071;51.618;19.388;2023-04-06T06:26:30;333.73;;;152.05;;
72926;SDS011;61071;51.618;19.388;2023-04-06T06:28:56;75.07;;;37.65;;
72926;SDS011;61071;51.618;19.388;2023-04-06T06:31:22;124.40;;;57.70;;
72926;SDS011;61071;51.618;19.388;2023-04-06T06:33:50;48.95;;;27.17;;
72926;SDS011;61071;51.618;19.388;2023-04-06T06:36:16;85.93;;;47.17;;
72926;SDS011;61071;51.618;19.388;2023-04-06T06:38:43;190.85;;;110.85;;
72926;SDS011;61071;51.618;19.388;2023-04-06T06:41:10;35.28;;;19.75;;
72926;SDS011;61071;51.618;19.388;2023-04-06T06:43:36;42.95;;;25.48;;
72926;SDS011;61071;51.618;19.388;2023-04-06T06:46:02;116.43;;;80.07;;
72926;SDS011;61071;51.618;19.388;2023-04-06T06:48:29;34.33;;;21.45;;
72926;SDS011;61071;51.618;19.388;2023-04-06T06:50:55;342.27;;;165.02;;
72926;SDS011;61071;51.618;19.388;2023-04-06T06:53:22;192.10;;;82.68;;
72926;SDS011;61071;51.618;19.388;2023-04-06T06:55:49;142.05;;;78.68;;
72926;SDS011;61071;51.618;19.388;2023-04-06T06:58:15;97.57;;;51.03;;
72926;SDS011;61071;51.618;19.388;2023-04-06T07:00:44;32.83;;;16.92;;
72926;SDS011;61071;51.618;19.388;2023-04-06T07:03:10;44.38;;;21.92;;
72926;SDS011;61071;51.618;19.388;2023-04-06T07:05:35;139.18;;;59.15;;
72926;SDS011;61071;51.618;19.388;2023-04-06T07:08:01;75.95;;;33.85;;
72926;SDS011;61071;51.618;19.388;2023-04-06T07:10:27;39.35;;;18.05;;
72926;SDS011;61071;51.618;19.388;2023-04-06T07:12:53;42.80;;;20.33;;
72926;SDS011;61071;51.618;19.388;2023-04-06T07:15:18;182.07;;;83.13;;
72926;SDS011;61071;51.618;19.388;2023-04-06T07:17:44;89.50;;;38.42;;
72926;SDS011;61071;51.618;19.388;2023-04-06T07:20:10;45.60;;;19.02;;
72926;SDS011;61071;51.618;19.388;2023-04-06T07:22:38;24.13;;;13.30;;
72926;SDS011;61071;51.618;19.388;2023-04-06T07:25:04;59.83;;;26.30;;
72926;SDS011;61071;51.618;19.388;2023-04-06T07:27:31;32.80;;;17.73;;
72926;SDS011;61071;51.618;19.388;2023-04-06T07:29:56;31.45;;;16.42;;
72926;SDS011;61071;51.618;19.388;2023-04-06T07:32:22;20.23;;;11.10;;
72926;SDS011;61071;51.618;19.388;2023-04-06T07:34:48;23.90;;;11.05;;
72926;SDS011;61071;51.618;19.388;2023-04-06T07:37:13;33.78;;;15.65;;
72926;SDS011;61071;51.618;19.388;2023-04-06T07:39:39;24.10;;;12.30;;
72926;SDS011;61071;51.618;19.388;2023-04-06T07:42:05;40.25;;;20.27;;
72926;SDS011;61071;51.618;19.388;2023-04-06T07:44:31;23.80;;;13.60;;
72926;SDS011;61071;51.618;19.388;2023-04-06T07:46:57;44.05;;;25.83;;
72926;SDS011;61071;51.618;19.388;2023-04-06T07:49:22;67.10;;;35.55;;
72926;SDS011;61071;51.618;19.388;2023-04-06T07:51:48;60.97;;;33.00;;
72926;SDS011;61071;51.618;19.388;2023-04-06T07:54:14;20.30;;;11.57;;
72926;SDS011;61071;51.618;19.388;2023-04-06T07:56:40;53.55;;;33.03;;
72926;SDS011;61071;51.618;19.388;2023-04-06T07:59:05;16.85;;;9.55;;
72926;SDS011;61071;51.618;19.388;2023-04-06T08:01:31;35.05;;;20.10;;
72926;SDS011;61071;51.618;19.388;2023-04-06T08:03:57;20.85;;;9.85;;
72926;SDS011;61071;51.618;19.388;2023-04-06T08:06:23;13.00;;;6.93;;
72926;SDS011;61071;51.618;19.388;2023-04-06T08:08:49;16.17;;;9.35;;
72926;SDS011;61071;51.618;19.388;2023-04-06T08:11:15;16.52;;;8.38;;
72926;SDS011;61071;51.618;19.388;2023-04-06T08:13:41;10.88;;;6.40;;
72926;SDS011;61071;51.618;19.388;2023-04-06T08:16:06;15.02;;;7.93;;
72926;SDS011;61071;51.618;19.388;2023-04-06T08:18:32;14.10;;;7.07;;
72926;SDS011;61071;51.618;19.388;2023-04-06T08:20:58;9.40;;;6.32;;
72926;SDS011;61071;51.618;19.388;2023-04-06T08:23:23;8.88;;;5.22;;
72926;SDS011;61071;51.618;19.388;2023-04-06T08:25:49;12.32;;;6.50;;
72926;SDS011;61071;51.618;19.388;2023-04-06T08:28:15;13.07;;;5.95;;
72926;SDS011;61071;51.618;19.388;2023-04-06T08:30:41;9.60;;;5.97;;
72926;SDS011;61071;51.618;19.388;2023-04-06T08:33:07;13.20;;;8.02;;
72926;SDS011;61071;51.618;19.388;2023-04-06T08:35:34;16.77;;;7.55;;
72926;SDS011;61071;51.618;19.388;2023-04-06T08:38:00;12.63;;;4.75;;
72926;SDS011;61071;51.618;19.388;2023-04-06T08:40:26;7.75;;;4.90;;
72926;SDS011;61071;51.618;19.388;2023-04-06T08:42:54;7.57;;;4.03;;
72926;SDS011;61071;51.618;19.388;2023-04-06T08:45:21;7.53;;;4.60;;
72926;SDS011;61071;51.618;19.388;2023-04-06T08:47:49;7.15;;;4.03;;
72926;SDS011;61071;51.618;19.388;2023-04-06T08:50:17;6.47;;;4.28;;
72926;SDS011;61071;51.618;19.388;2023-04-06T08:52:44;7.15;;;3.75;;
72926;SDS011;61071;51.618;19.388;2023-04-06T08:55:13;7.13;;;4.45;;
72926;SDS011;61071;51.618;19.388;2023-04-06T08:57:40;9.20;;;4.78;;
72926;SDS011;61071;51.618;19.388;2023-04-06T09:00:09;7.55;;;4.38;;
72926;SDS011;61071;51.618;19.388;2023-04-06T09:02:40;5.63;;;4.00;;
72926;SDS011;61071;51.618;19.388;2023-04-06T09:05:10;5.68;;;4.07;;
72926;SDS011;61071;51.618;19.388;2023-04-06T09:07:36;6.82;;;4.38;;
72926;SDS011;61071;51.618;19.388;2023-04-06T09:10:06;9.57;;;4.70;;
72926;SDS011;61071;51.618;19.388;2023-04-06T09:12:35;5.88;;;3.78;;
72926;SDS011;61071;51.618;19.388;2023-04-06T09:15:01;7.85;;;3.95;;
72926;SDS011;61071;51.618;19.388;2023-04-06T09:17:31;5.40;;;3.15;;
72926;SDS011;61071;51.618;19.388;2023-04-06T09:20:01;6.40;;;3.70;;
72926;SDS011;61071;51.618;19.388;2023-04-06T09:22:38;6.53;;;3.55;;
72926;SDS011;61071;51.618;19.388;2023-04-06T09:25:05;7.63;;;3.08;;
72926;SDS011;61071;51.618;19.388;2023-04-06T09:27:34;9.77;;;3.15;;
72926;SDS011;61071;51.618;19.388;2023-04-06T09:30:11;5.95;;;3.20;;
72926;SDS011;61071;51.618;19.388;2023-04-06T09:32:50;5.88;;;3.90;;
72926;SDS011;61071;51.618;19.388;2023-04-06T09:35:18;9.18;;;5.32;;
72926;SDS011;61071;51.618;19.388;2023-04-06T09:37:49;7.47;;;3.70;;
72926;SDS011;61071;51.618;19.388;2023-04-06T09:40:17;21.00;;;9.15;;
72926;SDS011;61071;51.618;19.388;2023-04-06T09:42:47;11.95;;;6.90;;
72926;SDS011;61071;51.618;19.388;2023-04-06T09:45:19;8.80;;;4.85;;
72926;SDS011;61071;51.618;19.388;2023-04-06T09:47:45;4.95;;;3.00;;
72926;SDS011;61071;51.618;19.388;2023-04-06T09:50:12;10.23;;;5.50;;
72926;SDS011;61071;51.618;19.388;2023-04-06T09:52:49;5.20;;;3.28;;
72926;SDS011;61071;51.618;19.388;2023-04-06T09:55:30;5.18;;;3.40;;
72926;SDS011;61071;51.618;19.388;2023-04-06T09:58:04;5.72;;;3.30;;
72926;SDS011;61071;51.618;19.388;2023-04-06T10:00:32;5.82;;;3.97;;
72926;SDS011;61071;51.618;19.388;2023-04-06T10:05:57;6.07;;;4.10;;
72926;SDS011;61071;51.618;19.388;2023-04-06T10:08:29;6.82;;;3.40;;
72926;SDS011;61071;51.618;19.388;2023-04-06T10:10:59;9.15;;;4.03;;
72926;SDS011;61071;51.618;19.388;2023-04-06T10:13:25;5.78;;;3.58;;
72926;SDS011;61071;51.618;19.388;2023-04-06T10:15:52;4.93;;;3.30;;
72926;SDS011;61071;51.618;19.388;2023-04-06T10:18:19;6.97;;;3.53;;
72926;SDS011;61071;51.618;19.388;2023-04-06T10:20:50;4.93;;;3.17;;
72926;SDS011;61071;51.618;19.388;2023-04-06T10:26:01;5.30;;;3.40;;
72926;SDS011;61071;51.618;19.388;2023-04-06T10:28:32;7.07;;;3.90;;
72926;SDS011;61071;51.618;19.388;2023-04-06T10:31:01;5.63;;;3.88;;
72926;SDS011;61071;51.618;19.388;2023-04-06T10:33:31;5.55;;;3.38;;
72926;SDS011;61071;51.618;19.388;2023-04-06T10:35:57;4.18;;;2.90;;
72926;SDS011;61071;51.618;19.388;2023-04-06T10:38:36;6.53;;;2.70;;
72926;SDS011;61071;51.618;19.388;2023-04-06T10:41:04;5.50;;;2.80;;
72926;SDS011;61071;51.618;19.388;2023-04-06T10:43:34;7.38;;;3.33;;
72926;SDS011;61071;51.618;19.388;2023-04-06T10:46:02;7.07;;;3.42;;
72926;SDS011;61071;51.618;19.388;2023-04-06T10:48:36;7.45;;;3.63;;
72926;SDS011;61071;51.618;19.388;2023-04-06T10:51:14;8.35;;;3.10;;
72926;SDS011;61071;51.618;19.388;2023-04-06T10:53:42;6.95;;;3.75;;
72926;SDS011;61071;51.618;19.388;2023-04-06T10:56:15;4.57;;;3.53;;
72926;SDS011;61071;51.618;19.388;2023-04-06T11:01:16;4.38;;;3.25;;
72926;SDS011;61071;51.618;19.388;2023-04-06T11:03:48;8.02;;;3.20;;
72926;SDS011;61071;51.618;19.388;2023-04-06T11:06:20;4.78;;;3.10;;
72926;SDS011;61071;51.618;19.388;2023-04-06T11:08:48;6.90;;;2.70;;
72926;SDS011;61071;51.618;19.388;2023-04-06T11:11:16;4.35;;;2.47;;
72926;SDS011;61071;51.618;19.388;2023-04-06T11:16:23;4.63;;;2.97;;
72926;SDS011;61071;51.618;19.388;2023-04-06T11:21:30;6.70;;;3.92;;
72926;SDS011;61071;51.618;19.388;2023-04-06T11:26:37;3.67;;;2.38;;
72926;SDS011;61071;51.618;19.388;2023-04-06T11:29:26;5.28;;;2.90;;
72926;SDS011;61071;51.618;19.388;2023-04-06T11:31:58;4.68;;;3.22;;
72926;SDS011;61071;51.618;19.388;2023-04-06T11:34:27;3.72;;;2.63;;
72926;SDS011;61071;51.618;19.388;2023-04-06T11:36:56;4.15;;;3.05;;
72926;SDS011;61071;51.618;19.388;2023-04-06T11:39:25;7.65;;;3.50;;
72926;SDS011;61071;51.618;19.388;2023-04-06T11:42:00;4.75;;;2.97;;
72926;SDS011;61071;51.618;19.388;2023-04-06T11:44:37;8.77;;;3.90;;
72926;SDS011;61071;51.618;19.388;2023-04-06T11:47:06;5.03;;;3.00;;
72926;SDS011;61071;51.618;19.388;2023-04-06T11:49:38;7.78;;;3.35;;
72926;SDS011;61071;51.618;19.388;2023-04-06T11:52:25;6.03;;;3.55;;
72926;SDS011;61071;51.618;19.388;2023-04-06T11:54:53;4.65;;;3.03;;
72926;SDS011;61071;51.618;19.388;2023-04-06T11:57:22;7.85;;;3.95;;
72926;SDS011;61071;51.618;19.388;2023-04-06T11:59:50;5.65;;;3.58;;
72926;SDS011;61071;51.618;19.388;2023-04-06T12:02:17;5.00;;;3.22;;
72926;SDS011;61071;51.618;19.388;2023-04-06T12:04:43;4.82;;;3.55;;
72926;SDS011;61071;51.618;19.388;2023-04-06T12:07:09;6.55;;;3.30;;
72926;SDS011;61071;51.618;19.388;2023-04-06T12:09:35;5.55;;;3.72;;
72926;SDS011;61071;51.618;19.388;2023-04-06T12:12:02;6.18;;;3.78;;
72926;SDS011;61071;51.618;19.388;2023-04-06T12:14:28;4.65;;;2.97;;
72926;SDS011;61071;51.618;19.388;2023-04-06T12:16:56;5.38;;;3.58;;
72926;SDS011;61071;51.618;19.388;2023-04-06T12:19:22;5.30;;;3.85;;
72926;SDS011;61071;51.618;19.388;2023-04-06T12:21:51;7.70;;;3.88;;
72926;SDS011;61071;51.618;19.388;2023-04-06T12:24:19;4.47;;;3.60;;
72926;SDS011;61071;51.618;19.388;2023-04-06T12:26:45;5.10;;;3.53;;
72926;SDS011;61071;51.618;19.388;2023-04-06T12:29:11;5.35;;;3.60;;
72926;SDS011;61071;51.618;19.388;2023-04-06T12:31:38;13.95;;;4.28;;
72926;SDS011;61071;51.618;19.388;2023-04-06T12:34:06;3.78;;;2.88;;
72926;SDS011;61071;51.618;19.388;2023-04-06T12:36:32;4.88;;;3.50;;
72926;SDS011;61071;51.618;19.388;2023-04-06T12:38:59;5.70;;;3.50;;
72926;SDS011;61071;51.618;19.388;2023-04-06T12:41:28;6.47;;;4.10;;
72926;SDS011;61071;51.618;19.388;2023-04-06T12:43:54;5.95;;;3.90;;
72926;SDS011;61071;51.618;19.388;2023-04-06T12:46:20;8.00;;;3.83;;
72926;SDS011;61071;51.618;19.388;2023-04-06T12:48:47;9.15;;;4.20;;
72926;SDS011;61071;51.618;19.388;2023-04-06T12:51:13;7.10;;;4.65;;
72926;SDS011;61071;51.618;19.388;2023-04-06T12:53:38;6.97;;;4.50;;
72926;SDS011;61071;51.618;19.388;2023-04-06T12:56:15;6.45;;;4.00;;
72926;SDS011;61071;51.618;19.388;2023-04-06T12:58:43;6.68;;;4.60;;
72926;SDS011;61071;51.618;19.388;2023-04-06T13:01:10;6.65;;;4.35;;
72926;SDS011;61071;51.618;19.388;2023-04-06T13:03:42;6.63;;;4.28;;
72926;SDS011;61071;51.618;19.388;2023-04-06T13:06:08;7.80;;;4.85;;
72926;SDS011;61071;51.618;19.388;2023-04-06T13:08:35;7.85;;;5.00;;
72926;SDS011;61071;51.618;19.388;2023-04-06T13:11:05;5.78;;;4.10;;
72926;SDS011;61071;51.618;19.388;2023-04-06T13:13:35;9.35;;;4.30;;
72926;SDS011;61071;51.618;19.388;2023-04-06T13:16:02;6.80;;;4.38;;
72926;SDS011;61071;51.618;19.388;2023-04-06T13:18:31;5.60;;;3.42;;
72926;SDS011;61071;51.618;19.388;2023-04-06T13:20:57;6.40;;;4.45;;
72926;SDS011;61071;51.618;19.388;2023-04-06T13:23:24;6.97;;;4.40;;
72926;SDS011;61071;51.618;19.388;2023-04-06T13:26:00;7.70;;;4.18;;
72926;SDS011;61071;51.618;19.388;2023-04-06T13:28:28;7.18;;;4.75;;
72926;SDS011;61071;51.618;19.388;2023-04-06T13:30:54;4.97;;;3.45;;
72926;SDS011;61071;51.618;19.388;2023-04-06T13:33:22;11.38;;;5.03;;
72926;SDS011;61071;51.618;19.388;2023-04-06T13:35:48;8.02;;;5.07;;
72926;SDS011;61071;51.618;19.388;2023-04-06T13:38:14;7.90;;;5.10;;
72926;SDS011;61071;51.618;19.388;2023-04-06T13:40:41;8.82;;;5.85;;
72926;SDS011;61071;51.618;19.388;2023-04-06T13:43:07;8.88;;;5.53;;
72926;SDS011;61071;51.618;19.388;2023-04-06T13:45:33;6.13;;;4.97;;
72926;SDS011;61071;51.618;19.388;2023-04-06T13:47:59;6.93;;;4.90;;
72926;SDS011;61071;51.618;19.388;2023-04-06T13:50:27;8.30;;;5.07;;
72926;SDS011;61071;51.618;19.388;2023-04-06T13:52:53;10.45;;;5.10;;
72926;SDS011;61071;51.618;19.388;2023-04-06T13:55:20;8.23;;;6.03;;
72926;SDS011;61071;51.618;19.388;2023-04-06T13:57:45;7.57;;;5.30;;
72926;SDS011;61071;51.618;19.388;2023-04-06T14:00:11;7.30;;;4.93;;
72926;SDS011;61071;51.618;19.388;2023-04-06T14:02:39;8.45;;;5.80;;
72926;SDS011;61071;51.618;19.388;2023-04-06T14:05:05;8.52;;;4.82;;
72926;SDS011;61071;51.618;19.388;2023-04-06T14:07:31;10.15;;;6.13;;
72926;SDS011;61071;51.618;19.388;2023-04-06T14:09:57;10.35;;;6.78;;
72926;SDS011;61071;51.618;19.388;2023-04-06T14:12:23;8.93;;;5.70;;
72926;SDS011;61071;51.618;19.388;2023-04-06T14:14:49;8.52;;;5.78;;
72926;SDS011;61071;51.618;19.388;2023-04-06T14:17:16;11.45;;;6.70;;
72926;SDS011;61071;51.618;19.388;2023-04-06T14:19:41;14.27;;;7.68;;
72926;SDS011;61071;51.618;19.388;2023-04-06T14:22:08;11.27;;;7.80;;
72926;SDS011;61071;51.618;19.388;2023-04-06T14:24:33;12.80;;;7.35;;
72926;SDS011;61071;51.618;19.388;2023-04-06T14:27:00;10.75;;;6.85;;
72926;SDS011;61071;51.618;19.388;2023-04-06T14:29:27;9.82;;;6.15;;
72926;SDS011;61071;51.618;19.388;2023-04-06T14:31:53;12.70;;;7.35;;
72926;SDS011;61071;51.618;19.388;2023-04-06T14:34:27;14.75;;;8.05;;